createdAt,value
2017-12-19T00:01:08.583Z,992.5
2017-12-19T00:02:32.602Z,992.5
2017-12-19T00:03:36.022Z,992.5
2017-12-19T00:04:47.612Z,992.5
2017-12-19T00:05:50.613Z,992.5
2017-12-19T00:07:16.512Z,992.5
2017-12-19T00:08:19.752Z,992.6
2017-12-19T00:09:27.999Z,992.6
2017-12-19T00:10:45.780Z,992.6
2017-12-19T00:12:15.949Z,992.6
2017-12-19T00:13:48.196Z,992.6
2017-12-19T00:15:18.730Z,992.5
2017-12-19T00:16:48.012Z,992.3
2017-12-19T00:18:19.836Z,992.7
2017-12-19T00:19:34.316Z,992.6
2017-12-19T00:21:03.399Z,992.7
2017-12-19T00:22:09.487Z,992.7
2017-12-19T00:23:15.769Z,992.7
2017-12-19T00:24:47.531Z,992.6
2017-12-19T00:26:17.786Z,992.5
2017-12-19T00:27:53.873Z,992.5
2017-12-19T00:29:25.168Z,992.6
2017-12-19T00:30:58.482Z,992.5
2017-12-19T00:32:12.994Z,992.5
2017-12-19T00:33:43.835Z,992.6
2017-12-19T00:35:13.320Z,992.6
2017-12-19T00:36:39.191Z,992.7
2017-12-19T00:37:42.359Z,992.7
2017-12-19T00:38:59.010Z,992.7
2017-12-19T00:40:19.900Z,992.7
2017-12-19T00:41:48.590Z,992.7
2017-12-19T00:43:21.383Z,992.6
2017-12-19T00:44:52.227Z,992.5
2017-12-19T00:46:18.977Z,992.6
2017-12-19T00:47:42.344Z,992.6
2017-12-19T00:49:12.437Z,992.6
2017-12-19T00:50:41.071Z,992.6
2017-12-19T00:52:10.330Z,992.4
2017-12-19T00:53:42.561Z,992.6
2017-12-19T00:54:45.800Z,992.6
2017-12-19T00:56:17.943Z,992.7
2017-12-19T00:57:22.106Z,992.7
2017-12-19T00:58:53.306Z,992.7
2017-12-19T01:00:24.477Z,992.8
2017-12-19T01:01:59.142Z,992.8
2017-12-19T01:03:21.874Z,992.9
2017-12-19T01:04:39.925Z,992.9
2017-12-19T01:05:59.384Z,992.8
2017-12-19T01:07:08.214Z,992.8
2017-12-19T01:08:10.922Z,992.7
2017-12-19T01:09:13.874Z,992.7
2017-12-19T01:10:17.894Z,992.7
2017-12-19T01:11:21.056Z,992.6
2017-12-19T01:12:43.468Z,992.5
2017-12-19T01:13:50.443Z,992.8
2017-12-19T01:14:57.914Z,992.7
2017-12-19T01:16:00.662Z,992.8
2017-12-19T01:17:11.359Z,992.8
2017-12-19T01:18:41.168Z,992.8
2017-12-19T01:20:06.947Z,992.9
2017-12-19T01:21:43.007Z,992.9
2017-12-19T01:23:12.836Z,993
2017-12-19T01:24:32.234Z,993
2017-12-19T01:26:04.317Z,992.8
2017-12-19T01:27:39.435Z,993.1
2017-12-19T01:29:03.821Z,993.1
2017-12-19T01:30:07.930Z,993.1
2017-12-19T01:31:39.442Z,993.1
2017-12-19T01:32:42.973Z,993.2
2017-12-19T01:33:46.923Z,993.2
2017-12-19T01:35:16.645Z,993.1
2017-12-19T01:36:34.961Z,993.2
2017-12-19T01:37:50.207Z,993.2
2017-12-19T01:38:52.669Z,993.3
2017-12-19T01:39:57.894Z,993.3
2017-12-19T01:41:02.667Z,993.3
2017-12-19T01:42:34.889Z,993.3
2017-12-19T01:44:06.526Z,993.4
2017-12-19T01:45:38.814Z,993.3
2017-12-19T01:47:11.137Z,993.3
2017-12-19T01:48:44.263Z,993.4
2017-12-19T01:50:16.458Z,993.3
2017-12-19T01:51:49.543Z,993.4
2017-12-19T01:53:20.821Z,993.4
2017-12-19T01:54:52.755Z,993.4
2017-12-19T01:56:25.290Z,993.4
2017-12-19T01:57:56.249Z,993.5
2017-12-19T01:59:29.373Z,993.4
2017-12-19T02:01:01.756Z,993.4
2017-12-19T02:02:33.480Z,993.5
2017-12-19T02:04:05.452Z,993.5
2017-12-19T02:05:34.502Z,993.5
2017-12-19T02:07:06.533Z,993.5
2017-12-19T02:08:39.809Z,993.5
2017-12-19T02:10:11.946Z,993.5
2017-12-19T02:11:44.936Z,993.3
2017-12-19T02:13:15.995Z,993.3
2017-12-19T02:14:49.423Z,993.5
2017-12-19T02:16:19.835Z,993.5
2017-12-19T02:17:52.181Z,993.5
2017-12-19T02:19:25.363Z,993.5
2017-12-19T02:20:57.322Z,993.4
2017-12-19T02:22:29.498Z,993.5
2017-12-19T02:24:01.852Z,993.5
2017-12-19T02:25:32.556Z,993.5
2017-12-19T02:27:02.434Z,993.5
2017-12-19T02:28:35.191Z,993.4
2017-12-19T02:30:07.485Z,993.5
2017-12-19T02:33:03.388Z,993.5
2017-12-19T02:34:36.377Z,993.5
2017-12-19T02:36:00.595Z,993.5
2017-12-19T02:37:03.117Z,993.5
2017-12-19T02:38:05.601Z,993.5
2017-12-19T02:39:08.112Z,993.5
2017-12-19T02:40:10.558Z,993.5
2017-12-19T02:41:13.096Z,993.5
2017-12-19T02:42:15.632Z,993.6
2017-12-19T02:43:18.158Z,993.5
2017-12-19T02:44:20.601Z,993.6
2017-12-19T02:45:23.156Z,993.6
2017-12-19T02:46:25.519Z,993.6
2017-12-19T02:47:27.960Z,993.5
2017-12-19T02:48:30.380Z,993.6
2017-12-19T02:49:32.828Z,993.6
2017-12-19T02:50:35.219Z,993.6
2017-12-19T02:51:37.626Z,993.5
2017-12-19T02:52:40.051Z,993.6
2017-12-19T02:53:42.512Z,993.6
2017-12-19T02:54:44.877Z,993.5
2017-12-19T02:55:47.343Z,993.5
2017-12-19T02:56:49.823Z,993.5
2017-12-19T02:57:52.325Z,993.5
2017-12-19T02:58:54.765Z,993.5
2017-12-19T02:59:57.167Z,993.5
2017-12-19T03:00:59.676Z,993.6
2017-12-19T03:02:02.173Z,993.5
2017-12-19T03:03:04.632Z,993.5
2017-12-19T03:04:07.102Z,993.6
2017-12-19T03:05:09.585Z,993.5
2017-12-19T03:06:16.838Z,993.4
2017-12-19T03:07:19.309Z,993.4
2017-12-19T03:08:21.873Z,993.5
2017-12-19T03:09:24.628Z,993.5
2017-12-19T03:10:27.057Z,993.5
2017-12-19T03:11:29.530Z,993.6
2017-12-19T03:12:31.898Z,993.4
2017-12-19T03:13:34.350Z,993.5
2017-12-19T03:14:36.748Z,993.6
2017-12-19T03:15:39.874Z,993.6
2017-12-19T03:16:42.375Z,993.4
2017-12-19T03:17:44.780Z,993.6
2017-12-19T03:18:47.164Z,993.6
2017-12-19T03:19:49.608Z,993.4
2017-12-19T03:20:51.949Z,993.6
2017-12-19T03:21:54.372Z,993.6
2017-12-19T03:22:56.699Z,993.7
2017-12-19T03:23:59.071Z,993.7
2017-12-19T03:25:01.534Z,993.7
2017-12-19T03:26:03.939Z,993.6
2017-12-19T03:27:06.343Z,993.7
2017-12-19T03:28:10.539Z,993.6
2017-12-19T03:29:13.007Z,993.6
2017-12-19T03:30:15.385Z,993.6
2017-12-19T03:31:17.834Z,993.6
2017-12-19T03:32:20.292Z,993.6
2017-12-19T03:33:22.680Z,993.6
2017-12-19T03:34:25.102Z,993.6
2017-12-19T03:35:27.547Z,993.5
2017-12-19T03:36:30.006Z,993.5
2017-12-19T03:37:32.512Z,993.5
2017-12-19T03:38:34.872Z,993.5
2017-12-19T03:39:38.073Z,993.5
2017-12-19T03:40:40.610Z,993.5
2017-12-19T03:41:43.010Z,993.5
2017-12-19T03:42:45.439Z,993.5
2017-12-19T03:43:47.849Z,993.5
2017-12-19T03:44:50.309Z,993.5
2017-12-19T03:45:52.760Z,993.4
2017-12-19T03:46:55.122Z,993.5
2017-12-19T03:47:57.526Z,993.5
2017-12-19T03:48:59.932Z,993.5
2017-12-19T03:50:02.307Z,993.6
2017-12-19T03:51:04.688Z,993.7
2017-12-19T03:52:07.179Z,993.7
2017-12-19T03:53:09.578Z,993.7
2017-12-19T03:54:12.014Z,993.7
2017-12-19T03:55:14.597Z,993.7
2017-12-19T03:56:17.062Z,993.7
2017-12-19T03:57:19.473Z,993.7
2017-12-19T03:58:21.874Z,993.8
2017-12-19T03:59:24.263Z,993.7
2017-12-19T04:00:26.733Z,993.7
2017-12-19T04:01:29.191Z,993.7
2017-12-19T04:02:31.626Z,993.7
2017-12-19T04:03:34.078Z,993.6
2017-12-19T04:04:36.582Z,993.7
2017-12-19T04:05:38.982Z,993.6
2017-12-19T04:06:41.486Z,993.6
2017-12-19T04:07:43.968Z,993.6
2017-12-19T04:08:46.358Z,993.6
2017-12-19T04:09:48.832Z,993.5
2017-12-19T04:10:51.301Z,993.6
2017-12-19T04:11:53.699Z,993.6
2017-12-19T04:12:56.123Z,993.6
2017-12-19T04:13:58.503Z,993.6
2017-12-19T04:15:01.056Z,993.6
2017-12-19T04:16:03.478Z,993.6
2017-12-19T04:17:05.912Z,993.7
2017-12-19T04:18:08.327Z,993.7
2017-12-19T04:19:10.752Z,993.7
2017-12-19T04:20:13.131Z,993.7
2017-12-19T04:21:15.517Z,993.8
2017-12-19T04:22:18.012Z,993.7
2017-12-19T04:23:20.463Z,993.7
2017-12-19T04:24:22.880Z,993.6
2017-12-19T04:25:25.327Z,993.7
2017-12-19T04:26:27.781Z,993.7
2017-12-19T04:27:30.655Z,993.7
2017-12-19T04:28:33.104Z,993.8
2017-12-19T04:29:35.536Z,993.7
2017-12-19T04:30:37.958Z,993.8
2017-12-19T04:31:40.554Z,993.7
2017-12-19T04:32:43.018Z,993.8
2017-12-19T04:33:45.404Z,993.8
2017-12-19T04:34:47.806Z,993.7
2017-12-19T04:35:50.223Z,993.9
2017-12-19T04:36:52.670Z,993.9
2017-12-19T04:37:55.050Z,993.9
2017-12-19T04:38:57.430Z,993.9
2017-12-19T04:39:59.905Z,993.8
2017-12-19T04:41:02.345Z,993.9
2017-12-19T04:42:04.766Z,993.9
2017-12-19T04:43:07.192Z,994
2017-12-19T04:44:09.646Z,994
2017-12-19T04:45:12.166Z,994
2017-12-19T04:46:14.566Z,994
2017-12-19T04:47:17.014Z,994.1
2017-12-19T04:48:19.661Z,994
2017-12-19T04:49:22.174Z,994
2017-12-19T04:50:24.675Z,994
2017-12-19T04:51:27.073Z,994
2017-12-19T04:52:29.480Z,994
2017-12-19T04:53:31.920Z,994
2017-12-19T04:54:34.336Z,994.1
2017-12-19T04:55:36.762Z,994.1
2017-12-19T04:56:41.200Z,993.9
2017-12-19T04:57:43.729Z,994
2017-12-19T04:58:46.150Z,994
2017-12-19T04:59:48.699Z,994
2017-12-19T05:00:51.199Z,994
2017-12-19T05:01:53.630Z,994.1
2017-12-19T05:02:56.124Z,994.2
2017-12-19T05:03:58.648Z,994.3
2017-12-19T05:05:01.150Z,994.3
2017-12-19T05:06:03.581Z,994.3
2017-12-19T05:07:06.075Z,994.3
2017-12-19T05:08:08.563Z,994.3
2017-12-19T05:09:10.984Z,994.3
2017-12-19T05:10:13.371Z,994.3
2017-12-19T05:11:15.796Z,994.2
2017-12-19T05:12:18.133Z,994.2
2017-12-19T05:13:21.611Z,994.1
2017-12-19T05:14:24.346Z,994.2
2017-12-19T05:15:26.843Z,994.2
2017-12-19T05:16:29.248Z,994.3
2017-12-19T05:17:31.677Z,994.3
2017-12-19T05:18:34.083Z,994.3
2017-12-19T05:19:36.496Z,994.4
2017-12-19T05:20:38.934Z,994.3
2017-12-19T05:21:43.081Z,994.4
2017-12-19T05:22:45.575Z,994.3
2017-12-19T05:23:47.944Z,994.4
2017-12-19T05:24:50.439Z,994.3
2017-12-19T05:25:52.890Z,994.3
2017-12-19T05:26:55.292Z,994.3
2017-12-19T05:27:57.759Z,994.3
2017-12-19T05:29:00.199Z,994.3
2017-12-19T05:30:02.749Z,994.3
2017-12-19T05:31:05.174Z,994.4
2017-12-19T05:32:07.611Z,994.3
2017-12-19T05:33:10.045Z,994.3
2017-12-19T05:34:12.464Z,994.4
2017-12-19T05:35:15.046Z,994.4
2017-12-19T05:36:17.497Z,994.3
2017-12-19T05:37:20.076Z,994.3
2017-12-19T05:38:22.517Z,994.3
2017-12-19T05:39:24.969Z,994.3
2017-12-19T05:40:27.416Z,994.3
2017-12-19T05:41:29.976Z,994.3
2017-12-19T05:42:32.628Z,994.4
2017-12-19T05:43:35.101Z,994.4
2017-12-19T05:44:37.624Z,994.4
2017-12-19T05:45:40.380Z,994.3
2017-12-19T05:46:43.543Z,994.3
2017-12-19T05:47:46.101Z,994.3
2017-12-19T05:48:48.533Z,994.3
2017-12-19T05:49:50.976Z,994.3
2017-12-19T05:50:53.401Z,994.4
2017-12-19T05:51:56.688Z,994.2
2017-12-19T05:52:59.219Z,994.4
2017-12-19T05:54:01.728Z,994.4
2017-12-19T05:55:04.283Z,994.5
2017-12-19T05:56:06.709Z,994.5
2017-12-19T05:57:09.151Z,994.5
2017-12-19T05:58:12.410Z,994.3
2017-12-19T05:59:14.871Z,994.5
2017-12-19T06:00:17.347Z,994.4
2017-12-19T06:01:20.905Z,994.4
2017-12-19T06:02:23.402Z,994.5
2017-12-19T06:03:25.869Z,994.6
2017-12-19T06:04:28.350Z,994.5
2017-12-19T06:05:30.750Z,994.6
2017-12-19T06:06:33.240Z,994.5
2017-12-19T06:07:35.758Z,994.6
2017-12-19T06:08:38.255Z,994.6
2017-12-19T06:09:40.765Z,994.5
2017-12-19T06:10:43.252Z,994.6
2017-12-19T06:11:45.722Z,994.5
2017-12-19T06:12:48.161Z,994.7
2017-12-19T06:13:50.669Z,994.8
2017-12-19T06:14:53.115Z,994.7
2017-12-19T06:15:55.536Z,994.7
2017-12-19T06:16:58.074Z,994.7
2017-12-19T06:18:00.649Z,994.7
2017-12-19T06:19:03.142Z,994.5
2017-12-19T06:20:05.821Z,994.8
2017-12-19T06:21:08.244Z,994.8
2017-12-19T06:22:10.847Z,994.8
2017-12-19T06:23:13.429Z,994.8
2017-12-19T06:24:15.964Z,994.6
2017-12-19T06:25:18.393Z,994.8
2017-12-19T06:26:20.847Z,994.7
2017-12-19T06:27:23.337Z,994.9
2017-12-19T06:28:25.897Z,994.9
2017-12-19T06:29:28.512Z,994.9
2017-12-19T06:30:31.048Z,994.9
2017-12-19T06:31:33.488Z,994.8
2017-12-19T06:32:35.883Z,994.8
2017-12-19T06:33:38.435Z,994.8
2017-12-19T06:34:40.887Z,994.8
2017-12-19T06:35:43.315Z,994.8
2017-12-19T06:36:45.795Z,994.6
2017-12-19T06:37:48.330Z,994.8
2017-12-19T06:38:50.948Z,994.9
2017-12-19T06:39:53.439Z,994.9
2017-12-19T06:40:55.958Z,994.9
2017-12-19T06:41:58.554Z,994.9
2017-12-19T06:43:01.211Z,994.9
2017-12-19T06:44:03.814Z,994.9
2017-12-19T06:45:06.434Z,994.9
2017-12-19T06:46:08.990Z,994.9
2017-12-19T06:47:11.628Z,994.9
2017-12-19T06:48:14.100Z,994.9
2017-12-19T06:49:16.685Z,994.9
2017-12-19T06:50:19.266Z,994.9
2017-12-19T06:51:21.709Z,994.9
2017-12-19T06:52:24.338Z,994.9
2017-12-19T06:53:26.874Z,994.9
2017-12-19T06:54:29.403Z,995
2017-12-19T06:55:32.031Z,995
2017-12-19T06:56:34.529Z,995.1
2017-12-19T06:57:36.970Z,995.1
2017-12-19T06:58:39.456Z,995
2017-12-19T06:59:41.999Z,994.9
2017-12-19T07:00:44.604Z,994.5
2017-12-19T07:01:47.105Z,994.7
2017-12-19T07:02:49.736Z,994.8
2017-12-19T07:03:52.329Z,994.7
2017-12-19T07:04:55.151Z,994.7
2017-12-19T07:05:57.660Z,994.7
2017-12-19T07:07:00.194Z,994.7
2017-12-19T07:08:02.822Z,994.7
2017-12-19T07:09:05.331Z,994.7
2017-12-19T07:10:08.065Z,994.6
2017-12-19T07:11:10.849Z,994.7
2017-12-19T07:12:13.427Z,994.7
2017-12-19T07:13:16.310Z,994.8
2017-12-19T07:14:18.975Z,994.8
2017-12-19T07:15:21.658Z,994.8
2017-12-19T07:16:24.246Z,994.8
2017-12-19T07:17:27.310Z,994.7
2017-12-19T07:18:29.948Z,994.7
2017-12-19T07:19:32.681Z,994.7
2017-12-19T07:20:35.135Z,994.6
2017-12-19T07:21:37.661Z,994.5
2017-12-19T07:22:40.279Z,994.7
2017-12-19T07:23:42.850Z,994.7
2017-12-19T07:24:45.415Z,994.7
2017-12-19T07:25:48.115Z,994.7
2017-12-19T07:26:50.709Z,994.6
2017-12-19T07:27:53.318Z,994.8
2017-12-19T07:28:55.797Z,994.8
2017-12-19T07:29:58.501Z,994.7
2017-12-19T07:31:01.310Z,994.7
2017-12-19T07:32:06.056Z,994.7
2017-12-19T07:33:08.638Z,994.8
2017-12-19T07:34:11.361Z,994.8
2017-12-19T07:35:14.226Z,994.9
2017-12-19T07:36:16.776Z,994.9
2017-12-19T07:37:19.305Z,995
2017-12-19T07:38:21.838Z,995
2017-12-19T07:39:24.300Z,994.9
2017-12-19T07:40:26.911Z,994.9
2017-12-19T07:41:29.378Z,994.9
2017-12-19T07:42:32.024Z,994.9
2017-12-19T07:43:34.674Z,994.9
2017-12-19T07:44:37.219Z,994.9
2017-12-19T07:45:39.922Z,994.9
2017-12-19T07:46:42.355Z,994.9
2017-12-19T07:47:44.838Z,994.7
2017-12-19T07:48:47.403Z,994.9
2017-12-19T07:49:49.862Z,995.1
2017-12-19T07:50:52.507Z,995.1
2017-12-19T07:51:55.071Z,995.2
2017-12-19T07:52:57.621Z,995.2
2017-12-19T07:54:00.241Z,995.2
2017-12-19T07:55:03.023Z,995.2
2017-12-19T07:56:05.718Z,995
2017-12-19T07:57:08.699Z,995.1
2017-12-19T07:58:11.282Z,995.1
2017-12-19T07:59:14.009Z,995.1
2017-12-19T08:00:16.749Z,995.2
2017-12-19T08:01:19.537Z,995.2
2017-12-19T08:02:22.279Z,995.3
2017-12-19T08:03:24.740Z,995.3
2017-12-19T08:04:27.202Z,995.2
2017-12-19T08:05:29.815Z,995
2017-12-19T08:06:32.383Z,995.1
2017-12-19T08:07:34.874Z,995
2017-12-19T08:08:37.419Z,994.9
2017-12-19T08:09:39.986Z,994.9
2017-12-19T08:10:42.489Z,994.9
2017-12-19T08:11:44.952Z,994.9
2017-12-19T08:12:47.451Z,994.9
2017-12-19T08:13:49.920Z,994.9
2017-12-19T08:14:52.419Z,995
2017-12-19T08:15:55.014Z,995.1
2017-12-19T08:16:57.563Z,995.1
2017-12-19T08:18:00.052Z,995.2
2017-12-19T08:19:02.557Z,995.1
2017-12-19T08:20:05.160Z,995.2
2017-12-19T08:21:07.853Z,995.2
2017-12-19T08:22:10.877Z,995.2
2017-12-19T08:23:13.480Z,995.2
2017-12-19T08:24:16.105Z,995.2
2017-12-19T08:25:18.629Z,995.1
2017-12-19T08:26:21.356Z,995.2
2017-12-19T08:27:25.291Z,995
2017-12-19T08:28:27.858Z,995.2
2017-12-19T08:29:30.355Z,995.3
2017-12-19T08:30:33.116Z,995.3
2017-12-19T08:31:35.650Z,995.2
2017-12-19T08:31:50.590Z,995.3
2017-12-19T08:32:53.375Z,995.2
2017-12-19T08:33:55.927Z,995.2
2017-12-19T08:34:58.860Z,995.3
2017-12-19T08:36:01.768Z,995.3
2017-12-19T08:37:04.279Z,995.2
2017-12-19T08:38:07.212Z,995.2
2017-12-19T08:39:10.152Z,995.3
2017-12-19T08:40:12.985Z,995.3
2017-12-19T08:41:15.582Z,995.3
2017-12-19T08:42:18.152Z,995.3
2017-12-19T08:43:21.149Z,995.1
2017-12-19T08:44:23.982Z,995.3
2017-12-19T08:45:26.902Z,995.3
2017-12-19T08:46:29.457Z,995.3
2017-12-19T08:47:32.347Z,995.2
2017-12-19T08:48:35.147Z,995.3
2017-12-19T08:49:37.695Z,995.3
2017-12-19T08:50:40.393Z,995.3
2017-12-19T08:51:43.191Z,995.4
2017-12-19T08:52:45.915Z,995.3
2017-12-19T08:53:48.639Z,995.4
2017-12-19T08:54:51.460Z,995.4
2017-12-19T08:55:54.512Z,995.4
2017-12-19T08:56:57.169Z,995.4
2017-12-19T08:58:03.215Z,995.3
2017-12-19T08:59:06.190Z,995.4
2017-12-19T09:00:12.223Z,995.5
2017-12-19T09:01:14.862Z,995.4
2017-12-19T09:02:18.030Z,995.5
2017-12-19T09:03:20.784Z,995.5
2017-12-19T09:04:23.584Z,995.6
2017-12-19T09:05:26.601Z,995.6
2017-12-19T09:06:29.527Z,995.6
2017-12-19T09:07:32.366Z,995.6
2017-12-19T09:08:35.432Z,995.6
2017-12-19T09:09:38.138Z,995.5
2017-12-19T09:10:41.025Z,995.5
2017-12-19T09:11:43.788Z,995.5
2017-12-19T09:12:46.604Z,995.7
2017-12-19T09:13:49.547Z,995.5
2017-12-19T09:14:53.304Z,995.6
2017-12-19T09:15:56.139Z,995.6
2017-12-19T09:16:58.913Z,995.6
2017-12-19T09:18:02.399Z,995.7
2017-12-19T09:19:06.187Z,995.7
2017-12-19T09:20:09.177Z,995.7
2017-12-19T09:21:12.111Z,995.6
2017-12-19T09:22:14.938Z,995.6
2017-12-19T09:23:17.917Z,995.4
2017-12-19T09:24:20.788Z,995.6
2017-12-19T09:25:23.698Z,995.6
2017-12-19T09:26:26.577Z,995.5
2017-12-19T09:27:29.717Z,995.6
2017-12-19T09:28:32.753Z,995.7
2017-12-19T09:29:35.500Z,995.7
2017-12-19T09:30:38.216Z,995.8
2017-12-19T09:31:43.868Z,995.5
2017-12-19T09:32:46.498Z,995.9
2017-12-19T09:33:49.223Z,995.8
2017-12-19T09:34:52.093Z,995.8
2017-12-19T09:35:55.165Z,995.9
2017-12-19T09:36:57.992Z,995.9
2017-12-19T09:38:00.944Z,995.9
2017-12-19T09:39:03.627Z,995.8
2017-12-19T09:40:06.450Z,995.7
2017-12-19T09:41:09.404Z,995.7
2017-12-19T09:42:12.471Z,995.7
2017-12-19T09:43:15.253Z,995.8
2017-12-19T09:44:18.027Z,995.7
2017-12-19T09:45:20.918Z,995.7
2017-12-19T09:46:23.614Z,995.7
2017-12-19T09:47:27.404Z,995.7
2017-12-19T09:48:30.976Z,995.7
2017-12-19T09:49:33.914Z,995.7
2017-12-19T09:50:36.738Z,995.7
2017-12-19T09:51:39.824Z,995.7
2017-12-19T09:52:42.917Z,995.6
2017-12-19T09:53:45.739Z,995.8
2017-12-19T09:54:48.590Z,995.9
2017-12-19T09:55:51.706Z,995.9
2017-12-19T09:56:54.628Z,995.9
2017-12-19T09:57:57.442Z,995.9
2017-12-19T09:59:00.857Z,995.5
2017-12-19T10:00:03.864Z,995.7
2017-12-19T10:01:07.031Z,995.8
2017-12-19T10:02:10.516Z,995.9
2017-12-19T10:03:13.759Z,995.7
2017-12-19T10:04:22.956Z,995.7
2017-12-19T10:05:25.692Z,995.9
2017-12-19T10:06:28.585Z,995.9
2017-12-19T10:07:31.312Z,995.9
2017-12-19T10:08:34.077Z,996
2017-12-19T10:09:36.791Z,996
2017-12-19T10:10:39.687Z,996
2017-12-19T10:11:43.688Z,995.9
2017-12-19T10:12:46.540Z,995.9
2017-12-19T10:13:49.229Z,995.8
2017-12-19T10:14:52.292Z,995.9
2017-12-19T10:15:54.933Z,995.9
2017-12-19T10:16:57.818Z,995.9
2017-12-19T10:18:00.703Z,995.9
2017-12-19T10:19:04.061Z,995.9
2017-12-19T10:20:07.072Z,995.9
2017-12-19T10:21:10.034Z,996
2017-12-19T10:22:12.869Z,995.9
2017-12-19T10:23:15.952Z,995.8
2017-12-19T10:24:18.767Z,995.9
2017-12-19T10:25:21.695Z,995.8
2017-12-19T10:26:24.370Z,995.8
2017-12-19T10:27:27.308Z,995.8
2017-12-19T10:28:30.011Z,995.9
2017-12-19T10:29:32.870Z,995.9
2017-12-19T10:30:35.701Z,995.9
2017-12-19T10:31:38.427Z,995.9
2017-12-19T10:32:41.655Z,995.9
2017-12-19T10:33:44.434Z,995.6
2017-12-19T10:34:47.184Z,995.8
2017-12-19T10:35:50.296Z,995.8
2017-12-19T10:36:53.361Z,995.8
2017-12-19T10:37:56.355Z,995.7
2017-12-19T10:38:59.046Z,995.7
2017-12-19T10:40:01.964Z,995.7
2017-12-19T10:41:04.936Z,995.6
2017-12-19T10:42:07.718Z,995.6
2017-12-19T10:43:10.393Z,995.7
2017-12-19T10:44:13.274Z,995.7
2017-12-19T10:45:16.303Z,995.7
2017-12-19T10:46:19.027Z,995.6
2017-12-19T10:47:21.998Z,995.6
2017-12-19T10:48:24.710Z,995.5
2017-12-19T10:49:27.447Z,995.5
2017-12-19T10:50:30.222Z,995.6
2017-12-19T10:51:33.307Z,995.5
2017-12-19T10:52:36.106Z,995.5
2017-12-19T10:54:59.370Z,995.6
2017-12-19T10:56:02.234Z,995.6
2017-12-19T10:57:04.812Z,995.6
2017-12-19T10:58:07.589Z,995.3
2017-12-19T10:59:10.317Z,995.5
2017-12-19T11:00:13.139Z,995.5
2017-12-19T11:01:15.784Z,995.5
2017-12-19T11:02:18.638Z,995.6
2017-12-19T11:03:21.846Z,995.6
2017-12-19T11:04:24.632Z,995.6
2017-12-19T11:05:27.668Z,995.6
2017-12-19T11:06:31.300Z,995.6
2017-12-19T11:07:34.303Z,995.6
2017-12-19T11:08:37.199Z,995.5
2017-12-19T11:09:40.251Z,995.4
2017-12-19T11:10:44.058Z,995.3
2017-12-19T11:11:47.154Z,995.5
2017-12-19T11:12:50.182Z,995.5
2017-12-19T11:13:53.591Z,995.5
2017-12-19T11:14:56.271Z,995.4
2017-12-19T11:15:59.160Z,995.5
2017-12-19T11:17:03.441Z,995.6
2017-12-19T11:19:16.072Z,995.5
2017-12-19T11:20:18.835Z,995.5
2017-12-19T11:21:22.219Z,995.5
2017-12-19T11:22:29.357Z,995.4
2017-12-19T11:23:33.894Z,995.3
2017-12-19T11:24:36.587Z,995.5
2017-12-19T11:25:39.463Z,995.4
2017-12-19T11:26:42.313Z,995.6
2017-12-19T11:27:45.143Z,995.6
2017-12-19T11:28:48.602Z,995.6
2017-12-19T11:29:55.674Z,995.5
2017-12-19T11:30:59.176Z,995.6
2017-12-19T11:32:02.214Z,995.6
2017-12-19T11:33:09.793Z,995.5
2017-12-19T11:34:12.947Z,995.4
2017-12-19T11:35:15.866Z,995.5
2017-12-19T11:36:18.961Z,995.5
2017-12-19T11:37:21.942Z,995.5
2017-12-19T11:38:24.805Z,995.5
2017-12-19T11:39:27.829Z,995.4
2017-12-19T11:40:30.507Z,995.5
2017-12-19T11:41:33.560Z,995.5
2017-12-19T11:42:36.784Z,995.5
2017-12-19T11:43:39.534Z,995.5
2017-12-19T11:44:42.355Z,995.5
2017-12-19T11:45:45.075Z,995.4
2017-12-19T11:46:47.881Z,995.4
2017-12-19T11:47:50.769Z,995.4
2017-12-19T11:48:55.666Z,995.4
2017-12-19T11:49:58.335Z,995.5
2017-12-19T11:51:01.244Z,995.4
2017-12-19T11:52:04.365Z,995.5
2017-12-19T11:53:07.482Z,995.6
2017-12-19T11:54:15.250Z,995.4
2017-12-19T11:55:18.014Z,995.6
2017-12-19T11:56:20.652Z,995.4
2017-12-19T11:57:23.912Z,995.6
2017-12-19T11:58:26.780Z,995.5
2017-12-19T11:59:29.618Z,995.4
2017-12-19T12:00:32.371Z,995.5
2017-12-19T12:01:35.173Z,995.5
2017-12-19T12:02:37.875Z,995.5
2017-12-19T12:03:40.791Z,995.5
2017-12-19T12:04:43.818Z,995.4
2017-12-19T12:05:46.803Z,995.3
2017-12-19T12:06:49.831Z,995.3
2017-12-19T12:07:58.819Z,995.5
2017-12-19T12:09:01.829Z,995.5
2017-12-19T12:10:04.600Z,995.3
2017-12-19T12:11:07.894Z,995.5
2017-12-19T12:12:10.864Z,995.5
2017-12-19T12:13:19.308Z,995.3
2017-12-19T12:14:23.303Z,995.4
2017-12-19T12:15:26.774Z,995.3
2017-12-19T12:16:29.600Z,995.4
2017-12-19T12:17:32.832Z,995.4
2017-12-19T12:18:36.246Z,995.4
2017-12-19T12:19:39.201Z,995.4
2017-12-19T12:20:41.989Z,995.4
2017-12-19T12:21:44.833Z,995.4
2017-12-19T12:22:47.559Z,995.3
2017-12-19T12:23:50.417Z,995.4
2017-12-19T12:24:53.329Z,995.4
2017-12-19T12:25:55.854Z,995.1
2017-12-19T12:26:58.576Z,995.2
2017-12-19T12:28:08.797Z,995.3
2017-12-19T12:29:11.917Z,995.3
2017-12-19T12:30:14.976Z,995.2
2017-12-19T12:31:17.732Z,995
2017-12-19T12:32:20.486Z,995.2
2017-12-19T12:33:23.533Z,995.2
2017-12-19T12:34:26.191Z,995.2
2017-12-19T12:35:29.247Z,995.2
2017-12-19T12:36:35.447Z,995.2
2017-12-19T12:37:38.637Z,995.1
2017-12-19T12:38:41.390Z,995.1
2017-12-19T12:39:44.878Z,995.1
2017-12-19T12:40:50.289Z,995
2017-12-19T12:41:55.706Z,995.1
2017-12-19T12:42:58.483Z,995.1
2017-12-19T12:44:01.395Z,994.9
2017-12-19T12:45:04.425Z,995.1
2017-12-19T12:46:07.308Z,995.1
2017-12-19T12:47:10.754Z,995.2
2017-12-19T12:48:13.531Z,995.1
2017-12-19T12:49:16.227Z,995.1
2017-12-19T12:50:19.608Z,995.1
2017-12-19T12:51:22.455Z,995.2
2017-12-19T12:52:25.210Z,995.1
2017-12-19T12:53:28.328Z,995.1
2017-12-19T12:54:31.552Z,995.2
2017-12-19T12:55:34.433Z,995.2
2017-12-19T12:56:43.219Z,995.2
2017-12-19T12:57:48.373Z,995.1
2017-12-19T12:58:52.791Z,995
2017-12-19T12:59:57.192Z,995.1
2017-12-19T13:00:59.774Z,995.1
2017-12-19T13:02:03.013Z,995.1
2017-12-19T13:03:08.748Z,995
2017-12-19T13:04:11.772Z,995.1
2017-12-19T13:05:14.478Z,995
2017-12-19T13:06:22.746Z,994.8
2017-12-19T13:07:25.453Z,995.1
2017-12-19T13:08:28.446Z,995
2017-12-19T13:09:31.038Z,995.1
2017-12-19T13:10:33.689Z,995.1
2017-12-19T13:11:36.983Z,994.9
2017-12-19T13:12:39.982Z,995.1
2017-12-19T13:13:45.155Z,995.1
2017-12-19T13:14:47.977Z,994.9
2017-12-19T13:15:50.715Z,995
2017-12-19T13:16:53.441Z,995.1
2017-12-19T13:17:56.045Z,995
2017-12-19T13:18:58.648Z,995
2017-12-19T13:20:01.491Z,995.1
2017-12-19T13:21:04.470Z,995.1
2017-12-19T13:22:07.329Z,995.1
2017-12-19T13:23:10.046Z,995
2017-12-19T13:24:12.881Z,995
2017-12-19T13:25:16.434Z,995
2017-12-19T13:26:22.357Z,995.1
2017-12-19T13:27:25.223Z,995
2017-12-19T13:28:28.090Z,995
2017-12-19T13:29:30.900Z,995
2017-12-19T13:30:37.601Z,995.1
2017-12-19T13:31:40.483Z,995.1
2017-12-19T13:32:43.560Z,995.1
2017-12-19T13:33:46.443Z,995.1
2017-12-19T13:34:49.119Z,995.1
2017-12-19T13:35:51.836Z,994.9
2017-12-19T13:36:54.766Z,994.9
2017-12-19T13:37:57.593Z,995.1
2017-12-19T13:39:00.302Z,995
2017-12-19T13:40:03.356Z,995
2017-12-19T13:41:06.568Z,995
2017-12-19T13:42:09.516Z,995.1
2017-12-19T13:43:12.376Z,994.9
2017-12-19T13:44:15.382Z,995
2017-12-19T13:45:18.352Z,995
2017-12-19T13:46:22.259Z,995.1
2017-12-19T13:47:24.922Z,994.8
2017-12-19T13:48:28.050Z,995.1
2017-12-19T13:49:30.954Z,995.1
2017-12-19T13:50:34.103Z,995.1
2017-12-19T13:51:37.024Z,995
2017-12-19T13:52:39.809Z,995
2017-12-19T13:53:42.483Z,994.7
2017-12-19T13:54:45.590Z,995
2017-12-19T13:55:48.463Z,995
2017-12-19T13:56:51.486Z,995
2017-12-19T13:57:54.512Z,995
2017-12-19T13:58:57.270Z,995
2017-12-19T14:00:00.167Z,994.9
2017-12-19T14:01:03.456Z,995
2017-12-19T14:02:06.853Z,995
2017-12-19T14:03:10.252Z,995
2017-12-19T14:04:13.296Z,995
2017-12-19T14:05:16.107Z,995
2017-12-19T14:06:25.961Z,995
2017-12-19T14:07:28.742Z,995
2017-12-19T14:08:31.574Z,995
2017-12-19T14:09:34.337Z,995
2017-12-19T14:10:37.146Z,995.1
2017-12-19T14:11:39.866Z,995
2017-12-19T14:12:48.236Z,995
2017-12-19T14:13:50.963Z,995
2017-12-19T14:14:53.963Z,995.1
2017-12-19T14:15:56.836Z,995.1
2017-12-19T14:17:00.124Z,995.1